sensor_id;sensor_type;location;lat;lon;timestamp;P1;durP1;ratioP1;P2;durP2;ratioP2
78561;SDS011;68963;52.138;5.446;2023-11-21T00:01:07;21.63;;;7.70;;
78561;SDS011;68963;52.138;5.446;2023-11-21T00:03:35;22.92;;;7.95;;
78561;SDS011;68963;52.138;5.446;2023-11-21T00:06:02;23.50;;;8.13;;
78561;SDS011;68963;52.138;5.446;2023-11-21T00:08:29;21.17;;;7.97;;
78561;SDS011;68963;52.138;5.446;2023-11-21T00:10:56;21.27;;;8.55;;
78561;SDS011;68963;52.138;5.446;2023-11-21T00:13:23;24.63;;;8.07;;
78561;SDS011;68963;52.138;5.446;2023-11-21T00:15:50;24.67;;;9.10;;
78561;SDS011;68963;52.138;5.446;2023-11-21T00:18:17;22.08;;;8.48;;
78561;SDS011;68963;52.138;5.446;2023-11-21T00:20:44;22.10;;;7.47;;
78561;SDS011;68963;52.138;5.446;2023-11-21T00:23:10;19.63;;;7.63;;
78561;SDS011;68963;52.138;5.446;2023-11-21T00:25:37;20.85;;;7.82;;
78561;SDS011;68963;52.138;5.446;2023-11-21T00:28:03;20.42;;;7.68;;
78561;SDS011;68963;52.138;5.446;2023-11-21T00:30:30;24.40;;;8.20;;
78561;SDS011;68963;52.138;5.446;2023-11-21T00:32:57;20.88;;;7.80;;
78561;SDS011;68963;52.138;5.446;2023-11-21T00:35:24;21.23;;;7.68;;
78561;SDS011;68963;52.138;5.446;2023-11-21T00:37:51;18.85;;;7.45;;
78561;SDS011;68963;52.138;5.446;2023-11-21T00:40:18;22.10;;;7.38;;
78561;SDS011;68963;52.138;5.446;2023-11-21T00:42:48;25.42;;;8.00;;
78561;SDS011;68963;52.138;5.446;2023-11-21T00:45:15;20.70;;;7.55;;
78561;SDS011;68963;52.138;5.446;2023-11-21T00:47:42;23.92;;;7.38;;
78561;SDS011;68963;52.138;5.446;2023-11-21T00:50:09;19.73;;;7.40;;
78561;SDS011;68963;52.138;5.446;2023-11-21T00:52:36;20.38;;;7.32;;
78561;SDS011;68963;52.138;5.446;2023-11-21T00:55:03;17.35;;;7.25;;
78561;SDS011;68963;52.138;5.446;2023-11-21T00:57:31;22.63;;;7.72;;
78561;SDS011;68963;52.138;5.446;2023-11-21T00:59:58;16.98;;;7.18;;
78561;SDS011;68963;52.138;5.446;2023-11-21T01:02:24;20.02;;;7.75;;
78561;SDS011;68963;52.138;5.446;2023-11-21T01:04:52;21.65;;;7.55;;
78561;SDS011;68963;52.138;5.446;2023-11-21T01:07:18;18.65;;;6.82;;
78561;SDS011;68963;52.138;5.446;2023-11-21T01:09:47;18.10;;;6.63;;
78561;SDS011;68963;52.138;5.446;2023-11-21T01:12:14;18.27;;;7.68;;
78561;SDS011;68963;52.138;5.446;2023-11-21T01:14:41;19.83;;;7.25;;
78561;SDS011;68963;52.138;5.446;2023-11-21T01:17:07;19.00;;;6.72;;
78561;SDS011;68963;52.138;5.446;2023-11-21T01:19:34;15.40;;;6.68;;
78561;SDS011;68963;52.138;5.446;2023-11-21T01:22:00;21.20;;;6.63;;
78561;SDS011;68963;52.138;5.446;2023-11-21T01:24:27;19.92;;;7.00;;
78561;SDS011;68963;52.138;5.446;2023-11-21T01:26:54;16.42;;;6.63;;
78561;SDS011;68963;52.138;5.446;2023-11-21T01:29:20;14.90;;;6.53;;
78561;SDS011;68963;52.138;5.446;2023-11-21T01:31:47;16.42;;;6.80;;
78561;SDS011;68963;52.138;5.446;2023-11-21T01:34:13;16.02;;;6.68;;
78561;SDS011;68963;52.138;5.446;2023-11-21T01:36:40;17.95;;;6.93;;
78561;SDS011;68963;52.138;5.446;2023-11-21T01:39:07;16.25;;;7.10;;
78561;SDS011;68963;52.138;5.446;2023-11-21T01:41:35;16.33;;;6.90;;
78561;SDS011;68963;52.138;5.446;2023-11-21T01:44:01;14.80;;;6.88;;
78561;SDS011;68963;52.138;5.446;2023-11-21T01:46:28;17.20;;;7.25;;
78561;SDS011;68963;52.138;5.446;2023-11-21T01:48:55;15.00;;;6.32;;
78561;SDS011;68963;52.138;5.446;2023-11-21T01:51:22;16.48;;;6.97;;
78561;SDS011;68963;52.138;5.446;2023-11-21T01:53:49;14.93;;;6.05;;
78561;SDS011;68963;52.138;5.446;2023-11-21T01:56:16;14.02;;;6.20;;
78561;SDS011;68963;52.138;5.446;2023-11-21T01:58:43;17.88;;;6.43;;
78561;SDS011;68963;52.138;5.446;2023-11-21T02:01:10;14.88;;;6.68;;
78561;SDS011;68963;52.138;5.446;2023-11-21T02:03:37;13.50;;;6.32;;
78561;SDS011;68963;52.138;5.446;2023-11-21T02:06:04;15.45;;;6.68;;
78561;SDS011;68963;52.138;5.446;2023-11-21T02:08:31;16.30;;;6.70;;
78561;SDS011;68963;52.138;5.446;2023-11-21T02:10:58;18.33;;;6.57;;
78561;SDS011;68963;52.138;5.446;2023-11-21T02:13:24;20.60;;;6.97;;
78561;SDS011;68963;52.138;5.446;2023-11-21T02:15:51;17.08;;;7.13;;
78561;SDS011;68963;52.138;5.446;2023-11-21T02:18:20;16.67;;;7.15;;
78561;SDS011;68963;52.138;5.446;2023-11-21T02:20:48;14.30;;;6.07;;
78561;SDS011;68963;52.138;5.446;2023-11-21T02:23:15;15.95;;;6.68;;
78561;SDS011;68963;52.138;5.446;2023-11-21T02:25:42;14.20;;;6.40;;
78561;SDS011;68963;52.138;5.446;2023-11-21T02:28:09;14.70;;;6.18;;
78561;SDS011;68963;52.138;5.446;2023-11-21T02:30:39;15.13;;;6.70;;
78561;SDS011;68963;52.138;5.446;2023-11-21T02:33:05;13.57;;;6.20;;
78561;SDS011;68963;52.138;5.446;2023-11-21T02:35:33;16.63;;;6.80;;
78561;SDS011;68963;52.138;5.446;2023-11-21T02:38:01;15.32;;;6.18;;
78561;SDS011;68963;52.138;5.446;2023-11-21T02:40:28;15.52;;;6.45;;
78561;SDS011;68963;52.138;5.446;2023-11-21T02:42:55;14.75;;;6.15;;
78561;SDS011;68963;52.138;5.446;2023-11-21T02:45:25;17.88;;;6.38;;
78561;SDS011;68963;52.138;5.446;2023-11-21T02:47:52;14.82;;;6.45;;
78561;SDS011;68963;52.138;5.446;2023-11-21T02:50:23;16.00;;;7.00;;
78561;SDS011;68963;52.138;5.446;2023-11-21T02:52:50;15.80;;;6.47;;
78561;SDS011;68963;52.138;5.446;2023-11-21T02:55:17;16.48;;;6.50;;
78561;SDS011;68963;52.138;5.446;2023-11-21T02:57:44;15.20;;;6.03;;
78561;SDS011;68963;52.138;5.446;2023-11-21T03:00:11;16.20;;;6.78;;
78561;SDS011;68963;52.138;5.446;2023-11-21T03:02:39;14.30;;;5.97;;
78561;SDS011;68963;52.138;5.446;2023-11-21T03:05:07;13.10;;;6.03;;
78561;SDS011;68963;52.138;5.446;2023-11-21T03:07:38;13.38;;;5.82;;
78561;SDS011;68963;52.138;5.446;2023-11-21T03:10:09;12.93;;;5.88;;
78561;SDS011;68963;52.138;5.446;2023-11-21T03:12:37;17.23;;;6.28;;
78561;SDS011;68963;52.138;5.446;2023-11-21T03:15:05;14.93;;;6.10;;
78561;SDS011;68963;52.138;5.446;2023-11-21T03:17:32;15.02;;;6.18;;
78561;SDS011;68963;52.138;5.446;2023-11-21T03:20:03;15.90;;;6.28;;
78561;SDS011;68963;52.138;5.446;2023-11-21T03:22:31;12.68;;;5.70;;
78561;SDS011;68963;52.138;5.446;2023-11-21T03:24:57;13.85;;;6.22;;
78561;SDS011;68963;52.138;5.446;2023-11-21T03:27:24;16.20;;;6.18;;
78561;SDS011;68963;52.138;5.446;2023-11-21T03:29:51;14.43;;;5.80;;
78561;SDS011;68963;52.138;5.446;2023-11-21T03:32:18;17.45;;;6.90;;
78561;SDS011;68963;52.138;5.446;2023-11-21T03:35:06;13.35;;;6.10;;
78561;SDS011;68963;52.138;5.446;2023-11-21T03:37:32;15.48;;;6.10;;
78561;SDS011;68963;52.138;5.446;2023-11-21T03:39:59;15.85;;;5.75;;
78561;SDS011;68963;52.138;5.446;2023-11-21T03:42:26;14.80;;;5.75;;
78561;SDS011;68963;52.138;5.446;2023-11-21T03:44:53;14.18;;;5.95;;
78561;SDS011;68963;52.138;5.446;2023-11-21T03:47:19;13.25;;;5.43;;
78561;SDS011;68963;52.138;5.446;2023-11-21T03:49:46;14.80;;;6.07;;
78561;SDS011;68963;52.138;5.446;2023-11-21T03:52:13;15.15;;;5.82;;
78561;SDS011;68963;52.138;5.446;2023-11-21T03:54:40;18.58;;;6.38;;
78561;SDS011;68963;52.138;5.446;2023-11-21T03:57:06;16.83;;;6.38;;
78561;SDS011;68963;52.138;5.446;2023-11-21T03:59:33;15.25;;;5.93;;
78561;SDS011;68963;52.138;5.446;2023-11-21T04:02:00;13.88;;;5.97;;
78561;SDS011;68963;52.138;5.446;2023-11-21T04:04:26;13.35;;;5.95;;
78561;SDS011;68963;52.138;5.446;2023-11-21T04:06:53;16.80;;;6.15;;
78561;SDS011;68963;52.138;5.446;2023-11-21T04:09:20;14.57;;;6.00;;
78561;SDS011;68963;52.138;5.446;2023-11-21T04:11:46;14.68;;;5.35;;
78561;SDS011;68963;52.138;5.446;2023-11-21T04:14:13;16.30;;;6.35;;
78561;SDS011;68963;52.138;5.446;2023-11-21T04:16:40;14.20;;;5.85;;
78561;SDS011;68963;52.138;5.446;2023-11-21T04:19:07;16.15;;;6.43;;
78561;SDS011;68963;52.138;5.446;2023-11-21T04:21:36;15.90;;;6.32;;
78561;SDS011;68963;52.138;5.446;2023-11-21T04:24:03;15.30;;;6.13;;
78561;SDS011;68963;52.138;5.446;2023-11-21T04:26:30;15.32;;;6.20;;
78561;SDS011;68963;52.138;5.446;2023-11-21T04:28:57;17.08;;;6.30;;
78561;SDS011;68963;52.138;5.446;2023-11-21T04:31:23;18.20;;;6.97;;
78561;SDS011;68963;52.138;5.446;2023-11-21T04:33:50;15.55;;;6.75;;
78561;SDS011;68963;52.138;5.446;2023-11-21T04:36:17;17.02;;;6.03;;
78561;SDS011;68963;52.138;5.446;2023-11-21T04:38:43;19.70;;;6.40;;
78561;SDS011;68963;52.138;5.446;2023-11-21T04:41:10;16.40;;;6.47;;
78561;SDS011;68963;52.138;5.446;2023-11-21T04:43:38;17.50;;;6.57;;
78561;SDS011;68963;52.138;5.446;2023-11-21T04:46:04;16.48;;;6.10;;
78561;SDS011;68963;52.138;5.446;2023-11-21T04:48:31;15.13;;;6.13;;
78561;SDS011;68963;52.138;5.446;2023-11-21T04:50:58;14.75;;;6.00;;
78561;SDS011;68963;52.138;5.446;2023-11-21T04:53:24;16.48;;;6.70;;
78561;SDS011;68963;52.138;5.446;2023-11-21T04:55:51;14.73;;;6.07;;
78561;SDS011;68963;52.138;5.446;2023-11-21T04:58:17;16.45;;;6.32;;
78561;SDS011;68963;52.138;5.446;2023-11-21T05:00:45;16.10;;;6.07;;
78561;SDS011;68963;52.138;5.446;2023-11-21T05:03:12;19.83;;;7.07;;
78561;SDS011;68963;52.138;5.446;2023-11-21T05:05:38;13.57;;;6.15;;
78561;SDS011;68963;52.138;5.446;2023-11-21T05:08:05;15.10;;;6.25;;
78561;SDS011;68963;52.138;5.446;2023-11-21T05:10:31;16.70;;;6.22;;
78561;SDS011;68963;52.138;5.446;2023-11-21T05:12:58;15.70;;;6.03;;
78561;SDS011;68963;52.138;5.446;2023-11-21T05:15:24;14.00;;;6.40;;
78561;SDS011;68963;52.138;5.446;2023-11-21T05:17:51;15.73;;;6.10;;
78561;SDS011;68963;52.138;5.446;2023-11-21T05:20:18;17.05;;;6.30;;
78561;SDS011;68963;52.138;5.446;2023-11-21T05:22:47;14.77;;;6.07;;
78561;SDS011;68963;52.138;5.446;2023-11-21T05:25:17;15.57;;;6.68;;
78561;SDS011;68963;52.138;5.446;2023-11-21T05:27:47;17.08;;;6.72;;
78561;SDS011;68963;52.138;5.446;2023-11-21T05:30:14;15.32;;;6.35;;
78561;SDS011;68963;52.138;5.446;2023-11-21T05:32:40;15.13;;;6.03;;
78561;SDS011;68963;52.138;5.446;2023-11-21T05:35:10;19.42;;;6.10;;
78561;SDS011;68963;52.138;5.446;2023-11-21T05:37:43;18.30;;;6.63;;
78561;SDS011;68963;52.138;5.446;2023-11-21T05:40:12;19.35;;;6.43;;
78561;SDS011;68963;52.138;5.446;2023-11-21T05:42:39;17.20;;;6.25;;
78561;SDS011;68963;52.138;5.446;2023-11-21T05:45:07;15.35;;;6.60;;
78561;SDS011;68963;52.138;5.446;2023-11-21T05:47:41;16.90;;;6.43;;
78561;SDS011;68963;52.138;5.446;2023-11-21T05:50:10;16.48;;;6.22;;
78561;SDS011;68963;52.138;5.446;2023-11-21T05:52:38;16.58;;;6.13;;
78561;SDS011;68963;52.138;5.446;2023-11-21T05:55:06;19.98;;;6.30;;
78561;SDS011;68963;52.138;5.446;2023-11-21T05:57:36;15.75;;;6.80;;
78561;SDS011;68963;52.138;5.446;2023-11-21T06:00:05;17.17;;;6.13;;
78561;SDS011;68963;52.138;5.446;2023-11-21T06:02:47;15.02;;;6.70;;
78561;SDS011;68963;52.138;5.446;2023-11-21T06:05:17;16.35;;;6.60;;
78561;SDS011;68963;52.138;5.446;2023-11-21T06:07:45;18.50;;;6.75;;
78561;SDS011;68963;52.138;5.446;2023-11-21T06:10:12;18.50;;;6.70;;
78561;SDS011;68963;52.138;5.446;2023-11-21T06:12:41;15.43;;;6.10;;
78561;SDS011;68963;52.138;5.446;2023-11-21T06:15:09;15.20;;;6.50;;
78561;SDS011;68963;52.138;5.446;2023-11-21T06:17:40;18.42;;;6.97;;
78561;SDS011;68963;52.138;5.446;2023-11-21T06:20:09;17.50;;;6.43;;
78561;SDS011;68963;52.138;5.446;2023-11-21T06:22:40;16.90;;;8.00;;
78561;SDS011;68963;52.138;5.446;2023-11-21T06:25:09;17.55;;;6.80;;
78561;SDS011;68963;52.138;5.446;2023-11-21T06:27:37;18.20;;;6.90;;
78561;SDS011;68963;52.138;5.446;2023-11-21T06:30:05;21.00;;;7.30;;
78561;SDS011;68963;52.138;5.446;2023-11-21T06:32:33;15.48;;;6.43;;
78561;SDS011;68963;52.138;5.446;2023-11-21T06:34:59;18.13;;;7.10;;
78561;SDS011;68963;52.138;5.446;2023-11-21T06:37:26;17.70;;;7.13;;
78561;SDS011;68963;52.138;5.446;2023-11-21T06:39:53;18.88;;;6.70;;
78561;SDS011;68963;52.138;5.446;2023-11-21T06:42:20;22.20;;;7.22;;
78561;SDS011;68963;52.138;5.446;2023-11-21T06:44:47;17.90;;;6.38;;
78561;SDS011;68963;52.138;5.446;2023-11-21T06:47:14;16.45;;;6.22;;
78561;SDS011;68963;52.138;5.446;2023-11-21T06:49:42;16.33;;;6.80;;
78561;SDS011;68963;52.138;5.446;2023-11-21T06:52:09;16.83;;;7.05;;
78561;SDS011;68963;52.138;5.446;2023-11-21T06:54:36;16.75;;;6.75;;
78561;SDS011;68963;52.138;5.446;2023-11-21T06:57:03;14.48;;;6.30;;
78561;SDS011;68963;52.138;5.446;2023-11-21T06:59:30;19.55;;;6.38;;
78561;SDS011;68963;52.138;5.446;2023-11-21T07:01:57;16.98;;;6.43;;
78561;SDS011;68963;52.138;5.446;2023-11-21T07:04:24;16.30;;;6.22;;
78561;SDS011;68963;52.138;5.446;2023-11-21T07:06:53;16.65;;;6.40;;
78561;SDS011;68963;52.138;5.446;2023-11-21T07:09:20;20.70;;;6.47;;
78561;SDS011;68963;52.138;5.446;2023-11-21T07:11:52;15.50;;;5.75;;
78561;SDS011;68963;52.138;5.446;2023-11-21T07:14:18;14.65;;;5.78;;
78561;SDS011;68963;52.138;5.446;2023-11-21T07:16:46;16.15;;;5.82;;
78561;SDS011;68963;52.138;5.446;2023-11-21T07:19:13;13.57;;;5.82;;
78561;SDS011;68963;52.138;5.446;2023-11-21T07:21:40;16.98;;;5.85;;
78561;SDS011;68963;52.138;5.446;2023-11-21T07:24:07;17.60;;;6.07;;
78561;SDS011;68963;52.138;5.446;2023-11-21T07:26:34;18.73;;;6.35;;
78561;SDS011;68963;52.138;5.446;2023-11-21T07:29:02;15.70;;;5.82;;
78561;SDS011;68963;52.138;5.446;2023-11-21T07:31:29;15.88;;;6.00;;
78561;SDS011;68963;52.138;5.446;2023-11-21T07:33:56;16.20;;;6.20;;
78561;SDS011;68963;52.138;5.446;2023-11-21T07:36:25;16.50;;;6.25;;
78561;SDS011;68963;52.138;5.446;2023-11-21T07:38:52;13.02;;;5.38;;
78561;SDS011;68963;52.138;5.446;2023-11-21T07:41:18;16.00;;;5.47;;
78561;SDS011;68963;52.138;5.446;2023-11-21T07:43:56;15.25;;;5.63;;
78561;SDS011;68963;52.138;5.446;2023-11-21T07:46:23;14.00;;;5.40;;
78561;SDS011;68963;52.138;5.446;2023-11-21T07:48:50;15.23;;;5.72;;
78561;SDS011;68963;52.138;5.446;2023-11-21T07:51:19;12.85;;;4.80;;
78561;SDS011;68963;52.138;5.446;2023-11-21T07:53:46;14.70;;;5.00;;
78561;SDS011;68963;52.138;5.446;2023-11-21T07:56:12;13.32;;;5.35;;
78561;SDS011;68963;52.138;5.446;2023-11-21T07:58:39;15.98;;;5.32;;
78561;SDS011;68963;52.138;5.446;2023-11-21T08:01:06;11.63;;;4.88;;
78561;SDS011;68963;52.138;5.446;2023-11-21T08:03:32;14.38;;;5.30;;
78561;SDS011;68963;52.138;5.446;2023-11-21T08:05:59;13.15;;;4.57;;
78561;SDS011;68963;52.138;5.446;2023-11-21T08:08:26;14.45;;;5.32;;
78561;SDS011;68963;52.138;5.446;2023-11-21T08:10:53;14.98;;;5.32;;
78561;SDS011;68963;52.138;5.446;2023-11-21T08:13:23;14.05;;;4.75;;
78561;SDS011;68963;52.138;5.446;2023-11-21T08:15:50;13.20;;;4.80;;
78561;SDS011;68963;52.138;5.446;2023-11-21T08:18:20;13.57;;;4.53;;
78561;SDS011;68963;52.138;5.446;2023-11-21T08:20:47;15.73;;;4.80;;
78561;SDS011;68963;52.138;5.446;2023-11-21T08:23:15;16.67;;;4.75;;
78561;SDS011;68963;52.138;5.446;2023-11-21T08:25:45;14.65;;;4.30;;
78561;SDS011;68963;52.138;5.446;2023-11-21T08:28:12;11.77;;;4.28;;
78561;SDS011;68963;52.138;5.446;2023-11-21T08:30:42;14.48;;;4.57;;
78561;SDS011;68963;52.138;5.446;2023-11-21T08:33:09;13.75;;;4.40;;
78561;SDS011;68963;52.138;5.446;2023-11-21T08:35:37;11.10;;;4.10;;
78561;SDS011;68963;52.138;5.446;2023-11-21T08:38:04;13.85;;;4.22;;
78561;SDS011;68963;52.138;5.446;2023-11-21T08:40:30;14.98;;;4.22;;
78561;SDS011;68963;52.138;5.446;2023-11-21T08:42:57;12.02;;;4.13;;
78561;SDS011;68963;52.138;5.446;2023-11-21T08:45:25;13.80;;;4.90;;
78561;SDS011;68963;52.138;5.446;2023-11-21T08:47:52;12.38;;;4.55;;
78561;SDS011;68963;52.138;5.446;2023-11-21T08:50:19;12.77;;;4.40;;
78561;SDS011;68963;52.138;5.446;2023-11-21T08:52:46;12.13;;;4.50;;
78561;SDS011;68963;52.138;5.446;2023-11-21T08:55:13;14.80;;;4.78;;
78561;SDS011;68963;52.138;5.446;2023-11-21T08:57:40;12.82;;;4.68;;
78561;SDS011;68963;52.138;5.446;2023-11-21T09:00:07;15.13;;;5.53;;
78561;SDS011;68963;52.138;5.446;2023-11-21T09:02:38;14.95;;;5.38;;
78561;SDS011;68963;52.138;5.446;2023-11-21T09:05:09;16.95;;;6.05;;
78561;SDS011;68963;52.138;5.446;2023-11-21T09:07:38;16.40;;;5.88;;
78561;SDS011;68963;52.138;5.446;2023-11-21T09:10:06;18.45;;;6.30;;
78561;SDS011;68963;52.138;5.446;2023-11-21T09:12:34;17.88;;;7.30;;
78561;SDS011;68963;52.138;5.446;2023-11-21T09:15:04;17.95;;;6.45;;
78561;SDS011;68963;52.138;5.446;2023-11-21T09:17:32;18.10;;;6.72;;
78561;SDS011;68963;52.138;5.446;2023-11-21T09:20:00;19.52;;;7.25;;
78561;SDS011;68963;52.138;5.446;2023-11-21T09:22:27;21.00;;;7.68;;
78561;SDS011;68963;52.138;5.446;2023-11-21T09:24:56;19.63;;;6.82;;
78561;SDS011;68963;52.138;5.446;2023-11-21T09:27:24;20.92;;;7.45;;
78561;SDS011;68963;52.138;5.446;2023-11-21T09:29:52;16.63;;;6.70;;
78561;SDS011;68963;52.138;5.446;2023-11-21T09:32:20;19.65;;;7.68;;
78561;SDS011;68963;52.138;5.446;2023-11-21T09:34:50;19.15;;;7.00;;
78561;SDS011;68963;52.138;5.446;2023-11-21T09:37:17;18.38;;;8.23;;
78561;SDS011;68963;52.138;5.446;2023-11-21T09:39:45;18.58;;;7.13;;
78561;SDS011;68963;52.138;5.446;2023-11-21T09:42:25;18.80;;;6.97;;
78561;SDS011;68963;52.138;5.446;2023-11-21T09:45:07;21.85;;;7.40;;
78561;SDS011;68963;52.138;5.446;2023-11-21T09:47:44;16.40;;;6.60;;
78561;SDS011;68963;52.138;5.446;2023-11-21T09:50:11;19.13;;;7.25;;
78561;SDS011;68963;52.138;5.446;2023-11-21T09:52:49;18.15;;;7.45;;
78561;SDS011;68963;52.138;5.446;2023-11-21T09:55:19;18.13;;;6.80;;
78561;SDS011;68963;52.138;5.446;2023-11-21T09:57:47;20.50;;;7.07;;
78561;SDS011;68963;52.138;5.446;2023-11-21T10:00:15;19.65;;;7.55;;
78561;SDS011;68963;52.138;5.446;2023-11-21T10:02:44;18.35;;;7.05;;
78561;SDS011;68963;52.138;5.446;2023-11-21T10:05:14;19.73;;;7.18;;
78561;SDS011;68963;52.138;5.446;2023-11-21T10:07:41;19.35;;;7.30;;
78561;SDS011;68963;52.138;5.446;2023-11-21T10:10:11;18.98;;;6.88;;
78561;SDS011;68963;52.138;5.446;2023-11-21T10:12:38;19.48;;;7.45;;
78561;SDS011;68963;52.138;5.446;2023-11-21T10:15:07;16.77;;;6.75;;
78561;SDS011;68963;52.138;5.446;2023-11-21T10:17:38;17.42;;;7.03;;
78561;SDS011;68963;52.138;5.446;2023-11-21T10:20:10;17.30;;;6.47;;
78561;SDS011;68963;52.138;5.446;2023-11-21T10:22:39;18.45;;;7.10;;
78561;SDS011;68963;52.138;5.446;2023-11-21T10:25:08;16.15;;;6.07;;
78561;SDS011;68963;52.138;5.446;2023-11-21T10:27:36;15.75;;;6.00;;
78561;SDS011;68963;52.138;5.446;2023-11-21T10:30:06;14.68;;;6.07;;
78561;SDS011;68963;52.138;5.446;2023-11-21T10:32:42;14.45;;;5.72;;
78561;SDS011;68963;52.138;5.446;2023-11-21T10:35:10;15.48;;;6.50;;
78561;SDS011;68963;52.138;5.446;2023-11-21T10:37:37;13.68;;;6.00;;
78561;SDS011;68963;52.138;5.446;2023-11-21T10:40:07;15.95;;;6.18;;
78561;SDS011;68963;52.138;5.446;2023-11-21T10:42:39;16.50;;;5.88;;
78561;SDS011;68963;52.138;5.446;2023-11-21T10:45:06;13.63;;;5.55;;
78561;SDS011;68963;52.138;5.446;2023-11-21T10:47:41;15.90;;;6.18;;
78561;SDS011;68963;52.138;5.446;2023-11-21T10:50:08;14.07;;;5.40;;
78561;SDS011;68963;52.138;5.446;2023-11-21T10:52:39;13.98;;;5.68;;
78561;SDS011;68963;52.138;5.446;2023-11-21T10:55:17;13.73;;;5.13;;
78561;SDS011;68963;52.138;5.446;2023-11-21T10:57:53;12.52;;;5.03;;
78561;SDS011;68963;52.138;5.446;2023-11-21T11:00:24;13.35;;;4.53;;
78561;SDS011;68963;52.138;5.446;2023-11-21T11:02:51;14.07;;;4.90;;
78561;SDS011;68963;52.138;5.446;2023-11-21T11:05:21;14.82;;;5.15;;
78561;SDS011;68963;52.138;5.446;2023-11-21T11:07:50;15.73;;;5.60;;
78561;SDS011;68963;52.138;5.446;2023-11-21T11:10:26;13.65;;;5.45;;
78561;SDS011;68963;52.138;5.446;2023-11-21T11:12:53;13.98;;;5.40;;
78561;SDS011;68963;52.138;5.446;2023-11-21T11:15:21;14.65;;;6.43;;
78561;SDS011;68963;52.138;5.446;2023-11-21T11:17:48;13.50;;;5.63;;
78561;SDS011;68963;52.138;5.446;2023-11-21T11:20:16;14.55;;;6.15;;
78561;SDS011;68963;52.138;5.446;2023-11-21T11:25:20;16.20;;;6.35;;
78561;SDS011;68963;52.138;5.446;2023-11-21T11:28:07;13.93;;;5.90;;
78561;SDS011;68963;52.138;5.446;2023-11-21T11:38:47;14.63;;;5.72;;
78561;SDS011;68963;52.138;5.446;2023-11-21T11:41:27;15.05;;;6.00;;
78561;SDS011;68963;52.138;5.446;2023-11-21T11:43:59;16.80;;;6.55;;
78561;SDS011;68963;52.138;5.446;2023-11-21T11:46:40;14.73;;;6.43;;
78561;SDS011;68963;52.138;5.446;2023-11-21T11:49:08;15.10;;;6.57;;
78561;SDS011;68963;52.138;5.446;2023-11-21T11:51:35;17.50;;;7.05;;
78561;SDS011;68963;52.138;5.446;2023-11-21T11:54:02;17.50;;;7.43;;
78561;SDS011;68963;52.138;5.446;2023-11-21T11:56:33;17.27;;;7.35;;
78561;SDS011;68963;52.138;5.446;2023-11-21T11:59:02;17.00;;;6.88;;
78561;SDS011;68963;52.138;5.446;2023-11-21T12:01:31;16.38;;;7.28;;
78561;SDS011;68963;52.138;5.446;2023-11-21T12:06:43;17.25;;;6.53;;
78561;SDS011;68963;52.138;5.446;2023-11-21T12:09:19;18.25;;;7.43;;
78561;SDS011;68963;52.138;5.446;2023-11-21T12:11:50;19.02;;;7.55;;
78561;SDS011;68963;52.138;5.446;2023-11-21T12:14:17;19.33;;;7.78;;
78561;SDS011;68963;52.138;5.446;2023-11-21T12:16:44;16.98;;;7.20;;
78561;SDS011;68963;52.138;5.446;2023-11-21T12:19:11;17.95;;;7.88;;
78561;SDS011;68963;52.138;5.446;2023-11-21T12:21:39;20.10;;;7.72;;
78561;SDS011;68963;52.138;5.446;2023-11-21T12:24:08;17.90;;;7.55;;
78561;SDS011;68963;52.138;5.446;2023-11-21T12:26:35;19.13;;;7.63;;
78561;SDS011;68963;52.138;5.446;2023-11-21T12:29:02;18.15;;;7.22;;
78561;SDS011;68963;52.138;5.446;2023-11-21T12:31:30;20.65;;;8.32;;
78561;SDS011;68963;52.138;5.446;2023-11-21T12:33:57;21.38;;;8.40;;
78561;SDS011;68963;52.138;5.446;2023-11-21T12:36:24;19.42;;;7.68;;
78561;SDS011;68963;52.138;5.446;2023-11-21T12:38:51;19.58;;;7.97;;
78561;SDS011;68963;52.138;5.446;2023-11-21T12:41:18;21.40;;;8.50;;
78561;SDS011;68963;52.138;5.446;2023-11-21T12:43:44;20.02;;;7.60;;
78561;SDS011;68963;52.138;5.446;2023-11-21T12:46:11;20.92;;;8.10;;
78561;SDS011;68963;52.138;5.446;2023-11-21T12:48:44;20.38;;;7.85;;
78561;SDS011;68963;52.138;5.446;2023-11-21T12:51:14;19.15;;;7.88;;
78561;SDS011;68963;52.138;5.446;2023-11-21T12:53:42;21.65;;;9.02;;
78561;SDS011;68963;52.138;5.446;2023-11-21T12:56:11;19.67;;;8.07;;
78561;SDS011;68963;52.138;5.446;2023-11-21T12:58:39;21.10;;;8.15;;
78561;SDS011;68963;52.138;5.446;2023-11-21T13:01:11;21.15;;;8.30;;
78561;SDS011;68963;52.138;5.446;2023-11-21T13:03:47;19.90;;;7.65;;
78561;SDS011;68963;52.138;5.446;2023-11-21T13:06:15;17.10;;;7.43;;
78561;SDS011;68963;52.138;5.446;2023-11-21T13:08:43;17.25;;;6.95;;
78561;SDS011;68963;52.138;5.446;2023-11-21T13:11:10;17.83;;;6.90;;
78561;SDS011;68963;52.138;5.446;2023-11-21T13:13:41;16.23;;;7.00;;
78561;SDS011;68963;52.138;5.446;2023-11-21T13:16:11;16.48;;;6.50;;
78561;SDS011;68963;52.138;5.446;2023-11-21T13:18:39;15.07;;;5.60;;
78561;SDS011;68963;52.138;5.446;2023-11-21T13:21:08;14.70;;;5.32;;
78561;SDS011;68963;52.138;5.446;2023-11-21T13:23:39;11.60;;;4.70;;
78561;SDS011;68963;52.138;5.446;2023-11-21T13:26:07;8.30;;;3.53;;
78561;SDS011;68963;52.138;5.446;2023-11-21T13:28:35;14.02;;;5.00;;
78561;SDS011;68963;52.138;5.446;2023-11-21T13:31:04;7.38;;;2.90;;
78561;SDS011;68963;52.138;5.446;2023-11-21T13:33:37;7.00;;;2.53;;
78561;SDS011;68963;52.138;5.446;2023-11-21T13:36:05;7.93;;;3.20;;
78561;SDS011;68963;52.138;5.446;2023-11-21T13:38:34;8.45;;;3.08;;
78561;SDS011;68963;52.138;5.446;2023-11-21T13:41:01;7.85;;;2.53;;
78561;SDS011;68963;52.138;5.446;2023-11-21T13:43:29;7.78;;;2.80;;
78561;SDS011;68963;52.138;5.446;2023-11-21T13:45:57;8.45;;;3.20;;
78561;SDS011;68963;52.138;5.446;2023-11-21T13:48:39;10.02;;;4.13;;
78561;SDS011;68963;52.138;5.446;2023-11-21T13:51:13;12.82;;;4.30;;
78561;SDS011;68963;52.138;5.446;2023-11-21T13:53:47;13.98;;;4.90;;
78561;SDS011;68963;52.138;5.446;2023-11-21T13:56:17;14.35;;;4.82;;
78561;SDS011;68963;52.138;5.446;2023-11-21T13:58:49;16.40;;;5.88;;
78561;SDS011;68963;52.138;5.446;2023-11-21T14:01:20;14.88;;;5.28;;
78561;SDS011;68963;52.138;5.446;2023-11-21T14:04:02;18.35;;;6.13;;
78561;SDS011;68963;52.138;5.446;2023-11-21T14:06:47;19.33;;;6.90;;
78561;SDS011;68963;52.138;5.446;2023-11-21T14:09:16;20.58;;;7.28;;
78561;SDS011;68963;52.138;5.446;2023-11-21T14:14:26;17.30;;;6.82;;
78561;SDS011;68963;52.138;5.446;2023-11-21T14:16:57;17.77;;;6.97;;
78561;SDS011;68963;52.138;5.446;2023-11-21T14:19:25;21.15;;;7.07;;
78561;SDS011;68963;52.138;5.446;2023-11-21T14:21:59;19.63;;;7.28;;
78561;SDS011;68963;52.138;5.446;2023-11-21T14:24:26;19.77;;;6.30;;
78561;SDS011;68963;52.138;5.446;2023-11-21T14:26:53;17.70;;;6.80;;
78561;SDS011;68963;52.138;5.446;2023-11-21T14:29:19;19.48;;;7.43;;
78561;SDS011;68963;52.138;5.446;2023-11-21T14:31:47;22.13;;;7.88;;
78561;SDS011;68963;52.138;5.446;2023-11-21T14:34:14;21.80;;;8.00;;
78561;SDS011;68963;52.138;5.446;2023-11-21T14:36:45;21.45;;;7.45;;
78561;SDS011;68963;52.138;5.446;2023-11-21T14:39:12;20.85;;;7.60;;
78561;SDS011;68963;52.138;5.446;2023-11-21T14:42:05;19.27;;;7.22;;
78561;SDS011;68963;52.138;5.446;2023-11-21T14:44:34;17.92;;;6.35;;
78561;SDS011;68963;52.138;5.446;2023-11-21T14:47:04;20.90;;;7.15;;
78561;SDS011;68963;52.138;5.446;2023-11-21T14:49:39;21.30;;;7.43;;
78561;SDS011;68963;52.138;5.446;2023-11-21T14:52:22;21.92;;;7.97;;
78561;SDS011;68963;52.138;5.446;2023-11-21T14:55:02;23.25;;;8.30;;
78561;SDS011;68963;52.138;5.446;2023-11-21T14:57:45;22.02;;;8.00;;
78561;SDS011;68963;52.138;5.446;2023-11-21T15:00:17;23.23;;;8.35;;